sensor_id;sensor_type;location;lat;lon;timestamp;P1;durP1;ratioP1;P2;durP2;ratioP2
69856;SDS011;57147;53.582;10.112;2022-09-09T00:05:04;91.55;;;28.13;;
69856;SDS011;57147;53.582;10.112;2022-09-09T00:10:20;99.85;;;27.48;;
69856;SDS011;57147;53.582;10.112;2022-09-09T00:15:30;88.45;;;26.08;;
69856;SDS011;57147;53.582;10.112;2022-09-09T00:20:37;78.07;;;26.35;;
69856;SDS011;57147;53.582;10.112;2022-09-09T00:25:42;70.53;;;25.10;;
69856;SDS011;57147;53.582;10.112;2022-09-09T00:30:51;78.78;;;26.77;;
69856;SDS011;57147;53.582;10.112;2022-09-09T00:35:51;53.22;;;23.08;;
69856;SDS011;57147;53.582;10.112;2022-09-09T00:40:58;106.85;;;24.38;;
69856;SDS011;57147;53.582;10.112;2022-09-09T00:46:13;64.05;;;21.40;;
69856;SDS011;57147;53.582;10.112;2022-09-09T00:51:25;76.38;;;23.65;;
69856;SDS011;57147;53.582;10.112;2022-09-09T00:56:31;66.95;;;21.77;;
69856;SDS011;57147;53.582;10.112;2022-09-09T01:01:39;74.80;;;21.30;;
69856;SDS011;57147;53.582;10.112;2022-09-09T01:06:40;44.50;;;18.83;;
69856;SDS011;57147;53.582;10.112;2022-09-09T01:11:48;64.88;;;20.20;;
69856;SDS011;57147;53.582;10.112;2022-09-09T01:16:56;50.33;;;18.40;;
69856;SDS011;57147;53.582;10.112;2022-09-09T01:22:00;52.83;;;19.67;;
69856;SDS011;57147;53.582;10.112;2022-09-09T01:27:08;63.72;;;21.50;;
69856;SDS011;57147;53.582;10.112;2022-09-09T01:37:40;43.92;;;19.25;;
69856;SDS011;57147;53.582;10.112;2022-09-09T01:42:43;57.80;;;20.25;;
69856;SDS011;57147;53.582;10.112;2022-09-09T01:47:44;48.40;;;18.50;;
69856;SDS011;57147;53.582;10.112;2022-09-09T01:52:46;63.08;;;20.40;;
69856;SDS011;57147;53.582;10.112;2022-09-09T01:57:55;51.42;;;17.98;;
69856;SDS011;57147;53.582;10.112;2022-09-09T02:03:11;40.90;;;17.85;;
69856;SDS011;57147;53.582;10.112;2022-09-09T02:08:20;68.13;;;18.42;;
69856;SDS011;57147;53.582;10.112;2022-09-09T02:13:28;68.93;;;21.52;;
69856;SDS011;57147;53.582;10.112;2022-09-09T02:18:32;40.72;;;17.25;;
69856;SDS011;57147;53.582;10.112;2022-09-09T02:23:37;44.40;;;17.73;;
69856;SDS011;57147;53.582;10.112;2022-09-09T02:28:42;40.30;;;17.10;;
69856;SDS011;57147;53.582;10.112;2022-09-09T02:33:44;56.40;;;17.40;;
69856;SDS011;57147;53.582;10.112;2022-09-09T02:38:47;74.75;;;18.58;;
69856;SDS011;57147;53.582;10.112;2022-09-09T02:43:51;47.42;;;17.55;;
69856;SDS011;57147;53.582;10.112;2022-09-09T02:48:52;50.90;;;17.80;;
69856;SDS011;57147;53.582;10.112;2022-09-09T02:54:00;42.97;;;17.13;;
69856;SDS011;57147;53.582;10.112;2022-09-09T02:59:11;41.95;;;16.92;;
69856;SDS011;57147;53.582;10.112;2022-09-09T03:04:11;49.35;;;15.90;;
69856;SDS011;57147;53.582;10.112;2022-09-09T03:09:12;52.15;;;16.98;;
69856;SDS011;57147;53.582;10.112;2022-09-09T03:14:15;39.55;;;16.15;;
69856;SDS011;57147;53.582;10.112;2022-09-09T03:19:16;56.35;;;17.10;;
69856;SDS011;57147;53.582;10.112;2022-09-09T03:24:17;48.83;;;16.70;;
69856;SDS011;57147;53.582;10.112;2022-09-09T03:29:20;38.65;;;16.95;;
69856;SDS011;57147;53.582;10.112;2022-09-09T03:34:20;45.92;;;16.77;;
69856;SDS011;57147;53.582;10.112;2022-09-09T03:39:21;37.00;;;17.33;;
69856;SDS011;57147;53.582;10.112;2022-09-09T03:44:24;31.55;;;16.50;;
69856;SDS011;57147;53.582;10.112;2022-09-09T03:49:25;31.48;;;16.50;;
69856;SDS011;57147;53.582;10.112;2022-09-09T03:54:25;39.88;;;17.77;;
69856;SDS011;57147;53.582;10.112;2022-09-09T03:59:28;32.58;;;16.30;;
69856;SDS011;57147;53.582;10.112;2022-09-09T04:04:29;32.65;;;17.55;;
69856;SDS011;57147;53.582;10.112;2022-09-09T04:09:30;30.27;;;16.65;;
69856;SDS011;57147;53.582;10.112;2022-09-09T04:14:33;28.33;;;15.65;;
69856;SDS011;57147;53.582;10.112;2022-09-09T04:19:33;31.48;;;16.23;;
69856;SDS011;57147;53.582;10.112;2022-09-09T04:24:34;28.85;;;15.40;;
69856;SDS011;57147;53.582;10.112;2022-09-09T04:29:37;31.52;;;15.75;;
69856;SDS011;57147;53.582;10.112;2022-09-09T04:34:38;26.38;;;15.00;;
69856;SDS011;57147;53.582;10.112;2022-09-09T04:39:38;25.67;;;14.57;;
69856;SDS011;57147;53.582;10.112;2022-09-09T04:44:41;33.47;;;17.35;;
69856;SDS011;57147;53.582;10.112;2022-09-09T04:49:42;24.00;;;14.52;;
69856;SDS011;57147;53.582;10.112;2022-09-09T04:54:42;38.28;;;17.33;;
69856;SDS011;57147;53.582;10.112;2022-09-09T04:59:49;31.13;;;15.95;;
69856;SDS011;57147;53.582;10.112;2022-09-09T05:04:49;24.83;;;14.45;;
69856;SDS011;57147;53.582;10.112;2022-09-09T05:09:50;26.48;;;16.08;;
69856;SDS011;57147;53.582;10.112;2022-09-09T05:14:53;25.23;;;13.85;;
69856;SDS011;57147;53.582;10.112;2022-09-09T05:19:53;21.88;;;13.07;;
69856;SDS011;57147;53.582;10.112;2022-09-09T05:24:54;21.65;;;13.25;;
69856;SDS011;57147;53.582;10.112;2022-09-09T05:29:57;20.10;;;12.18;;
69856;SDS011;57147;53.582;10.112;2022-09-09T05:34:58;22.38;;;12.77;;
69856;SDS011;57147;53.582;10.112;2022-09-09T05:39:58;21.63;;;12.75;;
69856;SDS011;57147;53.582;10.112;2022-09-09T05:45:01;24.55;;;13.48;;
69856;SDS011;57147;53.582;10.112;2022-09-09T05:50:02;19.38;;;12.23;;
69856;SDS011;57147;53.582;10.112;2022-09-09T05:55:04;17.45;;;11.02;;
69856;SDS011;57147;53.582;10.112;2022-09-09T06:00:09;14.90;;;10.02;;
69856;SDS011;57147;53.582;10.112;2022-09-09T06:05:11;17.60;;;12.20;;
69856;SDS011;57147;53.582;10.112;2022-09-09T06:10:12;17.17;;;12.88;;
69856;SDS011;57147;53.582;10.112;2022-09-09T06:15:15;18.83;;;12.90;;
69856;SDS011;57147;53.582;10.112;2022-09-09T06:20:16;15.50;;;9.77;;
69856;SDS011;57147;53.582;10.112;2022-09-09T06:25:16;12.20;;;8.48;;
69856;SDS011;57147;53.582;10.112;2022-09-09T06:30:19;11.57;;;7.82;;
69856;SDS011;57147;53.582;10.112;2022-09-09T06:35:20;15.48;;;10.30;;
69856;SDS011;57147;53.582;10.112;2022-09-09T06:40:20;13.40;;;8.55;;
69856;SDS011;57147;53.582;10.112;2022-09-09T06:45:24;12.23;;;8.82;;
69856;SDS011;57147;53.582;10.112;2022-09-09T06:50:24;14.20;;;9.75;;
69856;SDS011;57147;53.582;10.112;2022-09-09T06:55:25;10.07;;;7.28;;
69856;SDS011;57147;53.582;10.112;2022-09-09T07:00:28;12.98;;;7.55;;
69856;SDS011;57147;53.582;10.112;2022-09-09T07:05:28;12.65;;;7.82;;
69856;SDS011;57147;53.582;10.112;2022-09-09T07:10:29;11.23;;;7.35;;
69856;SDS011;57147;53.582;10.112;2022-09-09T07:15:32;10.48;;;6.00;;
69856;SDS011;57147;53.582;10.112;2022-09-09T07:20:33;10.82;;;6.68;;
69856;SDS011;57147;53.582;10.112;2022-09-09T07:25:33;9.52;;;5.40;;
69856;SDS011;57147;53.582;10.112;2022-09-09T07:30:37;8.07;;;5.90;;
69856;SDS011;57147;53.582;10.112;2022-09-09T07:35:37;12.88;;;6.80;;
69856;SDS011;57147;53.582;10.112;2022-09-09T07:40:38;9.93;;;5.68;;
69856;SDS011;57147;53.582;10.112;2022-09-09T07:45:41;8.82;;;5.35;;
69856;SDS011;57147;53.582;10.112;2022-09-09T07:50:42;9.93;;;7.03;;
69856;SDS011;57147;53.582;10.112;2022-09-09T07:55:42;10.27;;;4.82;;
69856;SDS011;57147;53.582;10.112;2022-09-09T08:00:45;8.55;;;5.93;;
69856;SDS011;57147;53.582;10.112;2022-09-09T08:05:46;5.32;;;3.42;;
69856;SDS011;57147;53.582;10.112;2022-09-09T08:10:48;8.57;;;4.97;;
69856;SDS011;57147;53.582;10.112;2022-09-09T08:15:51;8.25;;;4.07;;
69856;SDS011;57147;53.582;10.112;2022-09-09T08:20:51;6.70;;;4.43;;
69856;SDS011;57147;53.582;10.112;2022-09-09T08:25:52;11.95;;;5.57;;
69856;SDS011;57147;53.582;10.112;2022-09-09T08:30:55;6.13;;;3.38;;
69856;SDS011;57147;53.582;10.112;2022-09-09T08:35:56;6.28;;;3.65;;
69856;SDS011;57147;53.582;10.112;2022-09-09T08:40:57;10.60;;;5.65;;
69856;SDS011;57147;53.582;10.112;2022-09-09T08:51:13;5.25;;;3.05;;
69856;SDS011;57147;53.582;10.112;2022-09-09T08:56:14;6.18;;;3.22;;
69856;SDS011;57147;53.582;10.112;2022-09-09T09:01:33;9.63;;;4.15;;
69856;SDS011;57147;53.582;10.112;2022-09-09T09:06:44;10.55;;;5.32;;
69856;SDS011;57147;53.582;10.112;2022-09-09T09:11:55;7.03;;;3.35;;
69856;SDS011;57147;53.582;10.112;2022-09-09T09:17:01;7.45;;;2.63;;
69856;SDS011;57147;53.582;10.112;2022-09-09T09:22:04;6.40;;;3.38;;
69856;SDS011;57147;53.582;10.112;2022-09-09T09:27:11;5.30;;;2.58;;
69856;SDS011;57147;53.582;10.112;2022-09-09T09:32:16;4.43;;;1.73;;
69856;SDS011;57147;53.582;10.112;2022-09-09T09:37:21;5.25;;;1.70;;
69856;SDS011;57147;53.582;10.112;2022-09-09T09:42:26;4.80;;;1.77;;
69856;SDS011;57147;53.582;10.112;2022-09-09T09:47:29;5.63;;;1.65;;
69856;SDS011;57147;53.582;10.112;2022-09-09T09:52:30;5.22;;;1.63;;
69856;SDS011;57147;53.582;10.112;2022-09-09T09:57:32;4.55;;;1.63;;
69856;SDS011;57147;53.582;10.112;2022-09-09T10:02:39;3.92;;;1.73;;
69856;SDS011;57147;53.582;10.112;2022-09-09T10:07:41;5.30;;;3.00;;
69856;SDS011;57147;53.582;10.112;2022-09-09T10:12:46;2.55;;;1.70;;
69856;SDS011;57147;53.582;10.112;2022-09-09T10:17:59;5.80;;;2.08;;
69856;SDS011;57147;53.582;10.112;2022-09-09T10:23:12;4.63;;;1.15;;
69856;SDS011;57147;53.582;10.112;2022-09-09T10:28:29;3.78;;;1.13;;
69856;SDS011;57147;53.582;10.112;2022-09-09T10:33:44;4.25;;;0.50;;
69856;SDS011;57147;53.582;10.112;2022-09-09T10:38:52;5.25;;;1.20;;
69856;SDS011;57147;53.582;10.112;2022-09-09T10:44:03;2.90;;;1.27;;
69856;SDS011;57147;53.582;10.112;2022-09-09T10:49:27;3.35;;;1.00;;
69856;SDS011;57147;53.582;10.112;2022-09-09T10:54:46;3.30;;;0.43;;
69856;SDS011;57147;53.582;10.112;2022-09-09T10:59:55;1.10;;;0.22;;
69856;SDS011;57147;53.582;10.112;2022-09-09T11:05:03;2.67;;;0.43;;
69856;SDS011;57147;53.582;10.112;2022-09-09T11:10:14;7.63;;;2.80;;
69856;SDS011;57147;53.582;10.112;2022-09-09T11:15:20;5.10;;;2.13;;
69856;SDS011;57147;53.582;10.112;2022-09-09T11:20:31;5.75;;;2.05;;
69856;SDS011;57147;53.582;10.112;2022-09-09T11:25:32;2.55;;;0.80;;
69856;SDS011;57147;53.582;10.112;2022-09-09T11:35:50;3.58;;;0.50;;
69856;SDS011;57147;53.582;10.112;2022-09-09T11:41:03;5.50;;;0.85;;
69856;SDS011;57147;53.582;10.112;2022-09-09T11:46:07;1.75;;;0.65;;
69856;SDS011;57147;53.582;10.112;2022-09-09T11:51:12;1.30;;;0.40;;
69856;SDS011;57147;53.582;10.112;2022-09-09T11:56:22;2.90;;;0.47;;
69856;SDS011;57147;53.582;10.112;2022-09-09T12:01:35;1.83;;;0.43;;
69856;SDS011;57147;53.582;10.112;2022-09-09T12:06:44;3.15;;;0.60;;
69856;SDS011;57147;53.582;10.112;2022-09-09T12:11:46;2.53;;;0.70;;
69856;SDS011;57147;53.582;10.112;2022-09-09T12:16:46;2.40;;;0.85;;
69856;SDS011;57147;53.582;10.112;2022-09-09T12:21:53;2.75;;;0.30;;
69856;SDS011;57147;53.582;10.112;2022-09-09T12:26:58;2.03;;;0.47;;
69856;SDS011;57147;53.582;10.112;2022-09-09T12:32:07;3.28;;;0.68;;
69856;SDS011;57147;53.582;10.112;2022-09-09T12:42:17;2.20;;;0.32;;
69856;SDS011;57147;53.582;10.112;2022-09-09T12:47:19;2.80;;;0.77;;
69856;SDS011;57147;53.582;10.112;2022-09-09T12:52:24;2.47;;;0.55;;
69856;SDS011;57147;53.582;10.112;2022-09-09T12:57:30;2.35;;;0.40;;
69856;SDS011;57147;53.582;10.112;2022-09-09T13:02:34;2.70;;;1.00;;
69856;SDS011;57147;53.582;10.112;2022-09-09T13:07:38;2.10;;;1.00;;
69856;SDS011;57147;53.582;10.112;2022-09-09T13:12:41;2.20;;;1.35;;
69856;SDS011;57147;53.582;10.112;2022-09-09T13:17:48;3.28;;;0.93;;
69856;SDS011;57147;53.582;10.112;2022-09-09T13:22:53;3.53;;;1.30;;
69856;SDS011;57147;53.582;10.112;2022-09-09T13:27:56;3.38;;;1.02;;
69856;SDS011;57147;53.582;10.112;2022-09-09T13:38:09;3.38;;;1.23;;
69856;SDS011;57147;53.582;10.112;2022-09-09T13:43:12;3.78;;;1.35;;
69856;SDS011;57147;53.582;10.112;2022-09-09T13:48:18;4.55;;;1.70;;
69856;SDS011;57147;53.582;10.112;2022-09-09T13:53:21;4.10;;;1.63;;
69856;SDS011;57147;53.582;10.112;2022-09-09T13:58:22;6.50;;;2.78;;
69856;SDS011;57147;53.582;10.112;2022-09-09T14:03:22;9.77;;;4.60;;
69856;SDS011;57147;53.582;10.112;2022-09-09T14:08:26;11.82;;;4.05;;
69856;SDS011;57147;53.582;10.112;2022-09-09T14:13:27;13.70;;;5.88;;
69856;SDS011;57147;53.582;10.112;2022-09-09T14:18:27;9.00;;;5.20;;
69856;SDS011;57147;53.582;10.112;2022-09-09T14:23:31;8.10;;;4.07;;
69856;SDS011;57147;53.582;10.112;2022-09-09T14:28:31;10.48;;;5.43;;
69856;SDS011;57147;53.582;10.112;2022-09-09T14:33:32;8.00;;;3.30;;
69856;SDS011;57147;53.582;10.112;2022-09-09T14:38:36;8.38;;;3.72;;
69856;SDS011;57147;53.582;10.112;2022-09-09T14:43:38;5.97;;;3.60;;
69856;SDS011;57147;53.582;10.112;2022-09-09T14:48:38;7.22;;;3.45;;
69856;SDS011;57147;53.582;10.112;2022-09-09T14:53:42;4.35;;;2.10;;
69856;SDS011;57147;53.582;10.112;2022-09-09T14:58:44;6.97;;;2.90;;
69856;SDS011;57147;53.582;10.112;2022-09-09T15:03:48;9.10;;;4.15;;
69856;SDS011;57147;53.582;10.112;2022-09-09T15:08:52;5.45;;;2.03;;
69856;SDS011;57147;53.582;10.112;2022-09-09T15:13:53;5.70;;;2.13;;
69856;SDS011;57147;53.582;10.112;2022-09-09T15:18:56;7.45;;;3.50;;
69856;SDS011;57147;53.582;10.112;2022-09-09T15:24:00;7.18;;;2.80;;
69856;SDS011;57147;53.582;10.112;2022-09-09T15:29:01;4.97;;;1.45;;
69856;SDS011;57147;53.582;10.112;2022-09-09T15:34:02;3.88;;;1.65;;
69856;SDS011;57147;53.582;10.112;2022-09-09T15:39:07;4.72;;;1.75;;
69856;SDS011;57147;53.582;10.112;2022-09-09T15:44:10;2.08;;;0.90;;
69856;SDS011;57147;53.582;10.112;2022-09-09T15:49:11;4.13;;;1.73;;
69856;SDS011;57147;53.582;10.112;2022-09-09T15:54:16;4.38;;;1.63;;
69856;SDS011;57147;53.582;10.112;2022-09-09T15:59:18;4.13;;;1.85;;
69856;SDS011;57147;53.582;10.112;2022-09-09T16:04:20;6.15;;;3.00;;
69856;SDS011;57147;53.582;10.112;2022-09-09T16:09:24;4.85;;;2.50;;
69856;SDS011;57147;53.582;10.112;2022-09-09T16:14:25;5.10;;;2.35;;
69856;SDS011;57147;53.582;10.112;2022-09-09T16:19:26;4.45;;;1.35;;
69856;SDS011;57147;53.582;10.112;2022-09-09T16:24:29;3.35;;;1.75;;
69856;SDS011;57147;53.582;10.112;2022-09-09T16:29:30;2.63;;;1.00;;
69856;SDS011;57147;53.582;10.112;2022-09-09T16:34:30;3.53;;;1.55;;
69856;SDS011;57147;53.582;10.112;2022-09-09T16:39:34;4.10;;;1.55;;
69856;SDS011;57147;53.582;10.112;2022-09-09T16:44:34;3.42;;;1.15;;
69856;SDS011;57147;53.582;10.112;2022-09-09T16:49:35;15.32;;;9.77;;
69856;SDS011;57147;53.582;10.112;2022-09-09T16:54:38;5.13;;;2.60;;
69856;SDS011;57147;53.582;10.112;2022-09-09T16:59:39;3.90;;;1.88;;
69856;SDS011;57147;53.582;10.112;2022-09-09T17:04:39;27.88;;;18.17;;
69856;SDS011;57147;53.582;10.112;2022-09-09T17:09:42;14.63;;;9.80;;
69856;SDS011;57147;53.582;10.112;2022-09-09T17:14:43;6.28;;;2.90;;
69856;SDS011;57147;53.582;10.112;2022-09-09T17:19:44;7.03;;;3.83;;
69856;SDS011;57147;53.582;10.112;2022-09-09T17:24:47;6.07;;;3.33;;
69856;SDS011;57147;53.582;10.112;2022-09-09T17:29:49;8.15;;;2.78;;
69856;SDS011;57147;53.582;10.112;2022-09-09T17:34:49;3.70;;;1.90;;
69856;SDS011;57147;53.582;10.112;2022-09-09T17:39:53;4.63;;;2.60;;
69856;SDS011;57147;53.582;10.112;2022-09-09T17:44:53;4.97;;;2.63;;
69856;SDS011;57147;53.582;10.112;2022-09-09T17:49:54;4.30;;;2.00;;
69856;SDS011;57147;53.582;10.112;2022-09-09T17:54:57;5.88;;;3.25;;
69856;SDS011;57147;53.582;10.112;2022-09-09T17:59:57;4.55;;;2.30;;
69856;SDS011;57147;53.582;10.112;2022-09-09T18:04:58;5.75;;;3.08;;
69856;SDS011;57147;53.582;10.112;2022-09-09T18:10:01;4.50;;;3.47;;
69856;SDS011;57147;53.582;10.112;2022-09-09T18:15:02;5.47;;;2.78;;
69856;SDS011;57147;53.582;10.112;2022-09-09T18:20:04;5.72;;;3.85;;
69856;SDS011;57147;53.582;10.112;2022-09-09T18:25:08;6.28;;;4.38;;
69856;SDS011;57147;53.582;10.112;2022-09-09T18:30:09;4.82;;;3.55;;
69856;SDS011;57147;53.582;10.112;2022-09-09T18:35:11;6.65;;;4.57;;
69856;SDS011;57147;53.582;10.112;2022-09-09T18:40:14;8.00;;;4.72;;
69856;SDS011;57147;53.582;10.112;2022-09-09T18:45:15;7.47;;;4.82;;
69856;SDS011;57147;53.582;10.112;2022-09-09T18:50:16;8.95;;;5.10;;
69856;SDS011;57147;53.582;10.112;2022-09-09T18:55:20;6.45;;;3.90;;
69856;SDS011;57147;53.582;10.112;2022-09-09T19:00:20;7.22;;;4.20;;
69856;SDS011;57147;53.582;10.112;2022-09-09T19:05:21;7.55;;;5.00;;
69856;SDS011;57147;53.582;10.112;2022-09-09T19:10:24;11.63;;;7.32;;
69856;SDS011;57147;53.582;10.112;2022-09-09T19:15:25;7.38;;;5.25;;
69856;SDS011;57147;53.582;10.112;2022-09-09T19:20:25;11.80;;;7.85;;
69856;SDS011;57147;53.582;10.112;2022-09-09T19:25:29;7.60;;;4.85;;
69856;SDS011;57147;53.582;10.112;2022-09-09T19:30:29;8.43;;;4.45;;
69856;SDS011;57147;53.582;10.112;2022-09-09T19:35:30;9.60;;;5.40;;
69856;SDS011;57147;53.582;10.112;2022-09-09T19:40:33;6.38;;;4.13;;
69856;SDS011;57147;53.582;10.112;2022-09-09T19:45:35;11.43;;;7.20;;
69856;SDS011;57147;53.582;10.112;2022-09-09T19:50:36;10.63;;;7.93;;
69856;SDS011;57147;53.582;10.112;2022-09-09T19:55:40;8.90;;;4.90;;
69856;SDS011;57147;53.582;10.112;2022-09-09T20:00:40;7.25;;;4.70;;
69856;SDS011;57147;53.582;10.112;2022-09-09T20:05:44;7.20;;;4.80;;
69856;SDS011;57147;53.582;10.112;2022-09-09T20:10:54;12.73;;;7.70;;
69856;SDS011;57147;53.582;10.112;2022-09-09T20:15:55;13.75;;;8.70;;
69856;SDS011;57147;53.582;10.112;2022-09-09T20:20:57;7.40;;;4.85;;
69856;SDS011;57147;53.582;10.112;2022-09-09T20:26:02;5.55;;;3.78;;
69856;SDS011;57147;53.582;10.112;2022-09-09T20:31:06;8.20;;;4.65;;
69856;SDS011;57147;53.582;10.112;2022-09-09T20:36:08;5.47;;;3.72;;
69856;SDS011;57147;53.582;10.112;2022-09-09T20:41:15;5.35;;;4.05;;
69856;SDS011;57147;53.582;10.112;2022-09-09T20:46:17;6.22;;;4.22;;
69856;SDS011;57147;53.582;10.112;2022-09-09T20:51:18;11.23;;;3.90;;
69856;SDS011;57147;53.582;10.112;2022-09-09T20:56:21;6.50;;;3.85;;
69856;SDS011;57147;53.582;10.112;2022-09-09T21:01:21;9.07;;;5.93;;
69856;SDS011;57147;53.582;10.112;2022-09-09T21:06:22;10.88;;;5.85;;
69856;SDS011;57147;53.582;10.112;2022-09-09T21:11:25;5.45;;;4.00;;
69856;SDS011;57147;53.582;10.112;2022-09-09T21:16:27;6.65;;;3.22;;
69856;SDS011;57147;53.582;10.112;2022-09-09T21:21:28;3.88;;;2.92;;
69856;SDS011;57147;53.582;10.112;2022-09-09T21:26:31;5.55;;;3.20;;
69856;SDS011;57147;53.582;10.112;2022-09-09T21:31:33;4.75;;;2.60;;
69856;SDS011;57147;53.582;10.112;2022-09-09T21:36:33;5.38;;;2.35;;
69856;SDS011;57147;53.582;10.112;2022-09-09T21:41:37;6.80;;;3.92;;
69856;SDS011;57147;53.582;10.112;2022-09-09T21:46:38;8.48;;;3.17;;
69856;SDS011;57147;53.582;10.112;2022-09-09T21:51:39;5.22;;;2.17;;
69856;SDS011;57147;53.582;10.112;2022-09-09T21:56:42;4.00;;;2.25;;
69856;SDS011;57147;53.582;10.112;2022-09-09T22:01:43;6.25;;;3.15;;
69856;SDS011;57147;53.582;10.112;2022-09-09T22:06:43;4.95;;;2.03;;
69856;SDS011;57147;53.582;10.112;2022-09-09T22:11:47;5.70;;;2.20;;
69856;SDS011;57147;53.582;10.112;2022-09-09T22:16:47;4.22;;;1.75;;
69856;SDS011;57147;53.582;10.112;2022-09-09T22:21:48;5.75;;;2.35;;
69856;SDS011;57147;53.582;10.112;2022-09-09T22:26:52;4.32;;;1.92;;
69856;SDS011;57147;53.582;10.112;2022-09-09T22:31:52;6.43;;;2.22;;
69856;SDS011;57147;53.582;10.112;2022-09-09T22:36:55;4.82;;;2.17;;
69856;SDS011;57147;53.582;10.112;2022-09-09T22:41:58;13.35;;;5.95;;
69856;SDS011;57147;53.582;10.112;2022-09-09T22:46:59;6.30;;;2.33;;
69856;SDS011;57147;53.582;10.112;2022-09-09T22:52:00;5.47;;;2.03;;
69856;SDS011;57147;53.582;10.112;2022-09-09T22:57:04;5.15;;;2.72;;
69856;SDS011;57147;53.582;10.112;2022-09-09T23:02:04;5.03;;;2.40;;
69856;SDS011;57147;53.582;10.112;2022-09-09T23:07:05;4.60;;;2.95;;
69856;SDS011;57147;53.582;10.112;2022-09-09T23:12:08;6.38;;;3.30;;
69856;SDS011;57147;53.582;10.112;2022-09-09T23:17:09;5.68;;;3.63;;
69856;SDS011;57147;53.582;10.112;2022-09-09T23:22:09;12.35;;;6.47;;
69856;SDS011;57147;53.582;10.112;2022-09-09T23:27:12;5.85;;;3.20;;
69856;SDS011;57147;53.582;10.112;2022-09-09T23:32:13;8.40;;;3.38;;
69856;SDS011;57147;53.582;10.112;2022-09-09T23:37:14;7.20;;;4.55;;
69856;SDS011;57147;53.582;10.112;2022-09-09T23:42:17;6.43;;;3.05;;
69856;SDS011;57147;53.582;10.112;2022-09-09T23:47:18;4.97;;;3.53;;
69856;SDS011;57147;53.582;10.112;2022-09-09T23:52:18;5.70;;;3.22;;
69856;SDS011;57147;53.582;10.112;2022-09-09T23:57:22;4.70;;;2.60;;
